Minsk International Airport

Airport
ICAO code: 
UMMS
IATA Code: 
MSQ
Summary
ICAO Region: 
EUR
Territory: 
Location: 
Vykacheno, Smalyavichy Raion
Serving: 
Minsk
Elevation: 
669 ft
Coordinates: 
Aerial View: 
53° 53' 18.78" N, 28° 2' 9.24" E
Metar
Observation
UMMS 180330Z 34009G14MPS 9999 BKN022 M04/M07 Q1008 NOSIG
Station
Minsk
Date/Time
2022-01-18 03:30:00
Wind direction
340°
Lowest cloud amount
broken clouds
Temperature
-4°C
Dew point
-7°C
Humidity
79%
QNH
1008 hPa
Weather condition
n/a

Minsk National Airport (formerly known as Minsk-2) is the main international airport in Belarus, located 25nm to the east of the capital Minsk.

Climatology

Humid Continental climate (Köppen climate classification Dfb)

Runways

Designator Length Width Surface Rops
13/31 3641 60 CON Yes/Yes
Airport map: 
Aerial View: 

SKYbrary Partners:

Safety knowledge contributed by: